Beatriz B — 5BUB4 — position and weather

sailwx.info

Track history (hours):
 
Tides and Currents Weather Stations Pressure Air Temp Water Temp Dewpoint Dewpoint Depression Visibility Wind Speed Wind Dir Waves Ship Positions

Beatriz B

Last reported at 2018-Jun-21 08:30 UTC. Time now 2018-Jun-21 08:42 UTC.
Position N 28°09' W 015°25'.

Length 158 m; draft 8.8 m.

Type: Ship (hazmat cat A). MMSI: 209056000.

Date/timePositionNaut miles runAvg speedWind from/ knotsBaromVisibWave heightAir tempDewpointWater temp
2018-Jun-21 08:30N 28°09' W 015°25'0 0.0
2018-Jun-21 08:00N 28°09' W 015°25'0 0.0
2018-Jun-21 07:21N 28°09' W 015°25'0 0.0
2018-Jun-21 06:50N 28°09' W 015°25'0 0.0
2018-Jun-21 06:21N 28°09' W 015°25'0 0.0
2018-Jun-21 05:51N 28°09' W 015°25'0 0.0
2018-Jun-21 05:24N 28°09' W 015°25'0 0.0
2018-Jun-21 04:51N 28°09' W 015°25'0 0.0
2018-Jun-21 04:24N 28°09' W 015°25'0 0.0
2018-Jun-21 03:53N 28°09' W 015°25'0 0.0
2018-Jun-21 03:23N 28°09' W 015°25'0 0.0
2018-Jun-21 02:51N 28°09' W 015°25'0 0.0
2018-Jun-21 02:24N 28°09' W 015°25'0 0.0
2018-Jun-21 01:57N 28°09' W 015°25'0 0.0
2018-Jun-21 01:23N 28°09' W 015°25'0 0.0
2018-Jun-21 00:56N 28°09' W 015°25'0 0.0
2018-Jun-21 00:26N 28°09' W 015°25'0 0.0
2018-Jun-20 23:57N 28°09' W 015°25'0 0.0
2018-Jun-20 23:23N 28°09' W 015°25'0 0.0
2018-Jun-20 22:59N 28°09' W 015°25'0 0.0
2018-Jun-20 22:27N 28°09' W 015°25'0 0.0
2018-Jun-20 22:00N 28°09' W 015°25'0 0.0
2018-Jun-20 21:30N 28°09' W 015°25'0 0.0
2018-Jun-20 21:00N 28°09' W 015°25'0 0.0
2018-Jun-20 20:27N 28°09' W 015°25'0 0.0
2018-Jun-20 19:59N 28°09' W 015°25'0 0.0
2018-Jun-20 19:26N 28°09' W 015°25'0 0.0
2018-Jun-20 18:56N 28°09' W 015°25'1 2.4
2018-Jun-20 18:30N 28°08' W 015°25'1 3.0
2018-Jun-20 18:00N 28°08' W 015°23'1 2.1
2018-Jun-20 17:30N 28°09' W 015°23'4 8.5
2018-Jun-20 17:00N 28°13' W 015°25'817.0
2018-Jun-20 16:30N 28°15' W 015°35'816.7
2018-Jun-20 16:00N 28°18' W 015°44'816.4
2018-Jun-20 15:30N 28°21' W 015°52'916.6
2018-Jun-20 15:00N 28°24' W 016°01'816.0
2018-Jun-20 14:30N 28°27' W 016°09'4 0.9
2018-Jun-20 09:27N 28°29' W 016°14'0 0.0
2018-Jun-20 09:00N 28°29' W 016°14'0 0.0
2018-Jun-20 08:30N 28°29' W 016°14'0 0.0
2018-Jun-20 08:00N 28°29' W 016°14'0 0.1
2018-Jun-20 07:30N 28°29' W 016°14'0 0.1
2018-Jun-20 07:00N 28°29' W 016°14'0 0.0
2018-Jun-20 06:30N 28°29' W 016°14'0 0.0
2018-Jun-20 06:00N 28°29' W 016°14'1 2.7
2018-Jun-20 05:30N 28°28' W 016°13'4 8.1
2018-Jun-20 05:00N 28°29' W 016°08'510.1
2018-Jun-20 04:30N 28°32' W 016°04'611.4
2018-Jun-20 04:00N 28°38' W 016°02'611.5
2018-Jun-20 03:30N 28°43' W 015°59'612.1
2018-Jun-20 03:00N 28°49' W 015°56'612.3
2018-Jun-20 02:30N 28°54' W 015°54'612.1
2018-Jun-20 02:00N 28°60' W 015°51'712.1
2018-Jun-20 01:27N 29°06' W 015°48'711.8
2018-Jun-20 00:53N 29°12' W 015°46'511.9
2018-Jun-20 00:30N 29°17' W 015°44'612.0
2018-Jun-20 00:00N 29°22' W 015°41'611.8
2018-Jun-19 23:30N 29°27' W 015°38'612.7
2018-Jun-19 23:00N 29°33' W 015°36'915.2
2018-Jun-19 22:24N 29°42' W 015°32'1015.1
2018-Jun-19 21:43N 29°51' W 015°27'415.0
2018-Jun-19 21:28N 29°55' W 015°25'715.0
2018-Jun-19 21:00N 30°01' W 015°22'815.1
2018-Jun-19 20:27N 30°09' W 015°19'715.2
2018-Jun-19 20:00N 30°15' W 015°16'  
2018-Jun-16 05:07N 43°49' W 005°31'214.1
2018-Jun-16 05:00N 43°49' W 005°29'713.6
2018-Jun-16 04:29N 43°49' W 005°19'813.6
2018-Jun-16 03:53N 43°48' W 005°08'1513.6
2018-Jun-16 02:48N 43°48' W 004°47'4013.4
2018-Jun-15 23:49N 43°40' W 003°53'413.4
2018-Jun-15 23:30N 43°39' W 003°47'713.3
2018-Jun-15 23:00N 43°38' W 003°38'713.3
2018-Jun-15 22:30N 43°35' W 003°30'813.3
2018-Jun-15 21:56N 43°31' W 003°21'613.3
2018-Jun-15 21:30N 43°28' W 003°14'713.4
2018-Jun-15 21:01N 43°24' W 003°07'4 8.9
2018-Jun-15 20:30N 43°21' W 003°03'0 0.1
2018-Jun-15 19:59N 43°21' W 003°03'0 0.0
2018-Jun-15 19:29N 43°21' W 003°03'0 0.0
2018-Jun-15 18:59N 43°21' W 003°03'0 0.0
2018-Jun-15 18:29N 43°21' W 003°03'0 0.0
2018-Jun-15 17:32N 43°21' W 003°03'0 0.1
2018-Jun-15 17:29N 43°21' W 003°03'0 0.0
2018-Jun-15 16:59N 43°21' W 003°03'0 0.0
2018-Jun-15 16:29N 43°21' W 003°03'0 0.0
2018-Jun-15 15:59N 43°21' W 003°03'0 0.0
2018-Jun-15 15:29N 43°21' W 003°03'0 0.0
2018-Jun-15 14:56N 43°21' W 003°03'0 0.0
2018-Jun-15 14:29N 43°21' W 003°03'0 0.0
2018-Jun-15 13:59N 43°21' W 003°03'0 0.0
2018-Jun-15 13:29N 43°21' W 003°03'0 0.0
2018-Jun-15 12:59N 43°21' W 003°03'0 0.0
2018-Jun-15 12:29N 43°21' W 003°03'0 0.0
2018-Jun-15 11:59N 43°21' W 003°03'0 0.0
2018-Jun-15 11:29N 43°21' W 003°03'0 0.0
2018-Jun-15 10:59N 43°21' W 003°03'0 0.0
2018-Jun-15 10:29N 43°21' W 003°03'0 0.0
2018-Jun-15 09:59N 43°21' W 003°03'0 0.0
2018-Jun-15 09:23N 43°21' W 003°03'0 0.0
2018-Jun-15 08:59N 43°21' W 003°03'0 0.0
2018-Jun-15 08:29N 43°21' W 003°03'0 0.0
2018-Jun-15 07:59N 43°21' W 003°03'0 0.0
2018-Jun-15 07:29N 43°21' W 003°03'0 0.0
2018-Jun-15 06:59N 43°21' W 003°03'0 0.0
2018-Jun-15 06:23N 43°21' W 003°03'0 0.0
2018-Jun-15 05:59N 43°21' W 003°03'0 0.0
2018-Jun-15 05:29N 43°21' W 003°03'0 0.0
2018-Jun-15 04:59N 43°21' W 003°03'1 2.8
2018-Jun-15 04:30N 43°22' W 003°03'4 8.3
2018-Jun-15 04:00N 43°25' W 003°07'4 7.4
2018-Jun-15 03:30N 43°27' W 003°12'4 8.2
2018-Jun-15 03:00N 43°29' W 003°16'4 8.4
2018-Jun-15 02:30N 43°31' W 003°21'4 8.7
2018-Jun-15 02:00N 43°33' W 003°27'5 8.9
2018-Jun-15 01:27N 43°36' W 003°33'4 8.7
2018-Jun-15 01:00N 43°37' W 003°37'5 9.0
2018-Jun-15 00:30N 43°38' W 003°44'5 8.9
2018-Jun-15 00:00N 43°39' W 003°50'6 8.8
2018-Jun-14 23:16N 43°40' W 003°58'2 8.7
2018-Jun-14 23:00N 43°41' W 004°02'29 9.2
2018-Jun-14 19:52N 43°47' W 004°41'4 9.4
2018-Jun-14 19:30N 43°47' W 004°45'7 9.4
2018-Jun-14 18:46N 43°48' W 004°55'3 9.5
2018-Jun-14 18:29N 43°48' W 004°59'8 9.7
2018-Jun-14 17:39N 43°48' W 005°10'2 9.7
2018-Jun-14 17:23N 43°48' W 005°13'4 9.9
2018-Jun-14 17:00N 43°48' W 005°18'5 9.6
2018-Jun-14 16:29N 43°49' W 005°26'7 9.5
2018-Jun-14 15:43N 43°49' W 005°36'3 9.4
2018-Jun-14 15:25N 43°49' W 005°39'208 5.1
2018-Jun-12 22:31N 41°16' W 008°51'214.3
2018-Jun-12 22:21N 41°14' W 008°49'513.9
2018-Jun-12 22:00N 41°10' W 008°44'2 4.0
2018-Jun-12 21:30N 41°11' W 008°42'0 0.0
2018-Jun-12 21:00N 41°11' W 008°42'0 0.0
2018-Jun-12 20:30N 41°11' W 008°42'0 0.0
2018-Jun-12 20:00N 41°11' W 008°42'0 0.0
2018-Jun-12 19:30N 41°11' W 008°42'0 0.0
2018-Jun-12 19:00N 41°11' W 008°42'0 0.0
2018-Jun-12 18:30N 41°11' W 008°42'0 0.0
2018-Jun-12 18:00N 41°11' W 008°42'0 0.3
2018-Jun-12 17:30N 41°11' W 008°42'2 3.6
2018-Jun-12 17:00N 41°09' W 008°43'2 3.5
2018-Jun-12 16:30N 41°08' W 008°44'1 2.6
2018-Jun-12 16:00N 41°07' W 008°45'2 1.0
2018-Jun-12 14:28N 41°07' W 008°47'  
Track history (hours):
 
Tides and Currents Weather Stations Pressure Air Temp Water Temp Dewpoint Dewpoint Depression Visibility Wind Speed Wind Dir Waves Ship Positions

Beatriz B

Last reported at 2018-Jun-21 08:30 UTC. Time now 2018-Jun-21 08:42 UTC.
Position N 28°09' W 015°25'.

Length 158 m; draft 8.8 m.

Type: Ship (hazmat cat A). MMSI: 209056000.

Date/timePositionNaut miles runAvg speedWind from/ knotsBaromVisibWave heightAir tempDewpointWater temp
2018-Jun-21 08:30N 28°09' W 015°25'0 0.0
2018-Jun-21 08:00N 28°09' W 015°25'0 0.0
2018-Jun-21 07:21N 28°09' W 015°25'0 0.0
2018-Jun-21 06:50N 28°09' W 015°25'0 0.0
2018-Jun-21 06:21N 28°09' W 015°25'0 0.0
2018-Jun-21 05:51N 28°09' W 015°25'0 0.0
2018-Jun-21 05:24N 28°09' W 015°25'0 0.0
2018-Jun-21 04:51N 28°09' W 015°25'0 0.0
2018-Jun-21 04:24N 28°09' W 015°25'0 0.0
2018-Jun-21 03:53N 28°09' W 015°25'0 0.0
2018-Jun-21 03:23N 28°09' W 015°25'0 0.0
2018-Jun-21 02:51N 28°09' W 015°25'0 0.0
2018-Jun-21 02:24N 28°09' W 015°25'0 0.0
2018-Jun-21 01:57N 28°09' W 015°25'0 0.0
2018-Jun-21 01:23N 28°09' W 015°25'0 0.0
2018-Jun-21 00:56N 28°09' W 015°25'0 0.0
2018-Jun-21 00:26N 28°09' W 015°25'0 0.0
2018-Jun-20 23:57N 28°09' W 015°25'0 0.0
2018-Jun-20 23:23N 28°09' W 015°25'0 0.0
2018-Jun-20 22:59N 28°09' W 015°25'0 0.0
2018-Jun-20 22:27N 28°09' W 015°25'0 0.0
2018-Jun-20 22:00N 28°09' W 015°25'0 0.0
2018-Jun-20 21:30N 28°09' W 015°25'0 0.0
2018-Jun-20 21:00N 28°09' W 015°25'0 0.0
2018-Jun-20 20:27N 28°09' W 015°25'0 0.0
2018-Jun-20 19:59N 28°09' W 015°25'0 0.0
2018-Jun-20 19:26N 28°09' W 015°25'0 0.0
2018-Jun-20 18:56N 28°09' W 015°25'1 2.4
2018-Jun-20 18:30N 28°08' W 015°25'1 3.0
2018-Jun-20 18:00N 28°08' W 015°23'1 2.1
2018-Jun-20 17:30N 28°09' W 015°23'4 8.5
2018-Jun-20 17:00N 28°13' W 015°25'817.0
2018-Jun-20 16:30N 28°15' W 015°35'816.7
2018-Jun-20 16:00N 28°18' W 015°44'816.4
2018-Jun-20 15:30N 28°21' W 015°52'916.6
2018-Jun-20 15:00N 28°24' W 016°01'816.0
2018-Jun-20 14:30N 28°27' W 016°09'4 0.9
2018-Jun-20 09:27N 28°29' W 016°14'0 0.0
2018-Jun-20 09:00N 28°29' W 016°14'0 0.0
2018-Jun-20 08:30N 28°29' W 016°14'0 0.0
2018-Jun-20 08:00N 28°29' W 016°14'0 0.1
2018-Jun-20 07:30N 28°29' W 016°14'0 0.1
2018-Jun-20 07:00N 28°29' W 016°14'0 0.0
2018-Jun-20 06:30N 28°29' W 016°14'0 0.0
2018-Jun-20 06:00N 28°29' W 016°14'1 2.7
2018-Jun-20 05:30N 28°28' W 016°13'4 8.1
2018-Jun-20 05:00N 28°29' W 016°08'510.1
2018-Jun-20 04:30N 28°32' W 016°04'611.4
2018-Jun-20 04:00N 28°38' W 016°02'611.5
2018-Jun-20 03:30N 28°43' W 015°59'612.1
2018-Jun-20 03:00N 28°49' W 015°56'612.3
2018-Jun-20 02:30N 28°54' W 015°54'612.1
2018-Jun-20 02:00N 28°60' W 015°51'712.1
2018-Jun-20 01:27N 29°06' W 015°48'711.8
2018-Jun-20 00:53N 29°12' W 015°46'511.9
2018-Jun-20 00:30N 29°17' W 015°44'612.0
2018-Jun-20 00:00N 29°22' W 015°41'611.8
2018-Jun-19 23:30N 29°27' W 015°38'612.7
2018-Jun-19 23:00N 29°33' W 015°36'915.2
2018-Jun-19 22:24N 29°42' W 015°32'1015.1
2018-Jun-19 21:43N 29°51' W 015°27'415.0
2018-Jun-19 21:28N 29°55' W 015°25'715.0
2018-Jun-19 21:00N 30°01' W 015°22'815.1
2018-Jun-19 20:27N 30°09' W 015°19'715.2
2018-Jun-19 20:00N 30°15' W 015°16'  
2018-Jun-16 05:07N 43°49' W 005°31'214.1
2018-Jun-16 05:00N 43°49' W 005°29'713.6
2018-Jun-16 04:29N 43°49' W 005°19'813.6
2018-Jun-16 03:53N 43°48' W 005°08'1513.6
2018-Jun-16 02:48N 43°48' W 004°47'4013.4
2018-Jun-15 23:49N 43°40' W 003°53'413.4
2018-Jun-15 23:30N 43°39' W 003°47'713.3
2018-Jun-15 23:00N 43°38' W 003°38'713.3
2018-Jun-15 22:30N 43°35' W 003°30'813.3
2018-Jun-15 21:56N 43°31' W 003°21'613.3
2018-Jun-15 21:30N 43°28' W 003°14'713.4
2018-Jun-15 21:01N 43°24' W 003°07'4 8.9
2018-Jun-15 20:30N 43°21' W 003°03'0 0.1
2018-Jun-15 19:59N 43°21' W 003°03'0 0.0
2018-Jun-15 19:29N 43°21' W 003°03'0 0.0
2018-Jun-15 18:59N 43°21' W 003°03'0 0.0
2018-Jun-15 18:29N 43°21' W 003°03'0 0.0
2018-Jun-15 17:32N 43°21' W 003°03'0 0.1
2018-Jun-15 17:29N 43°21' W 003°03'0 0.0
2018-Jun-15 16:59N 43°21' W 003°03'0 0.0
2018-Jun-15 16:29N 43°21' W 003°03'0 0.0
2018-Jun-15 15:59N 43°21' W 003°03'0 0.0
2018-Jun-15 15:29N 43°21' W 003°03'0 0.0
2018-Jun-15 14:56N 43°21' W 003°03'0 0.0
2018-Jun-15 14:29N 43°21' W 003°03'0 0.0
2018-Jun-15 13:59N 43°21' W 003°03'0 0.0
2018-Jun-15 13:29N 43°21' W 003°03'0 0.0
2018-Jun-15 12:59N 43°21' W 003°03'0 0.0
2018-Jun-15 12:29N 43°21' W 003°03'0 0.0
2018-Jun-15 11:59N 43°21' W 003°03'0 0.0
2018-Jun-15 11:29N 43°21' W 003°03'0 0.0
2018-Jun-15 10:59N 43°21' W 003°03'0 0.0
2018-Jun-15 10:29N 43°21' W 003°03'0 0.0
2018-Jun-15 09:59N 43°21' W 003°03'0 0.0
2018-Jun-15 09:23N 43°21' W 003°03'0 0.0
2018-Jun-15 08:59N 43°21' W 003°03'0 0.0
2018-Jun-15 08:29N 43°21' W 003°03'0 0.0
2018-Jun-15 07:59N 43°21' W 003°03'0 0.0
2018-Jun-15 07:29N 43°21' W 003°03'0 0.0
2018-Jun-15 06:59N 43°21' W 003°03'0 0.0
2018-Jun-15 06:23N 43°21' W 003°03'0 0.0
2018-Jun-15 05:59N 43°21' W 003°03'0 0.0
2018-Jun-15 05:29N 43°21' W 003°03'0 0.0
2018-Jun-15 04:59N 43°21' W 003°03'1 2.8
2018-Jun-15 04:30N 43°22' W 003°03'4 8.3
2018-Jun-15 04:00N 43°25' W 003°07'4 7.4
2018-Jun-15 03:30N 43°27' W 003°12'4 8.2
2018-Jun-15 03:00N 43°29' W 003°16'4 8.4
2018-Jun-15 02:30N 43°31' W 003°21'4 8.7
2018-Jun-15 02:00N 43°33' W 003°27'5 8.9
2018-Jun-15 01:27N 43°36' W 003°33'4 8.7
2018-Jun-15 01:00N 43°37' W 003°37'5 9.0
2018-Jun-15 00:30N 43°38' W 003°44'5 8.9
2018-Jun-15 00:00N 43°39' W 003°50'6 8.8
2018-Jun-14 23:16N 43°40' W 003°58'2 8.7
2018-Jun-14 23:00N 43°41' W 004°02'29 9.2
2018-Jun-14 19:52N 43°47' W 004°41'4 9.4
2018-Jun-14 19:30N 43°47' W 004°45'7 9.4
2018-Jun-14 18:46N 43°48' W 004°55'3 9.5
2018-Jun-14 18:29N 43°48' W 004°59'8 9.7
2018-Jun-14 17:39N 43°48' W 005°10'2 9.7
2018-Jun-14 17:23N 43°48' W 005°13'4 9.9
2018-Jun-14 17:00N 43°48' W 005°18'5 9.6
2018-Jun-14 16:29N 43°49' W 005°26'7 9.5
2018-Jun-14 15:43N 43°49' W 005°36'3 9.4
2018-Jun-14 15:25N 43°49' W 005°39'208 5.1
2018-Jun-12 22:31N 41°16' W 008°51'214.3
2018-Jun-12 22:21N 41°14' W 008°49'513.9
2018-Jun-12 22:00N 41°10' W 008°44'2 4.0
2018-Jun-12 21:30N 41°11' W 008°42'0 0.0
2018-Jun-12 21:00N 41°11' W 008°42'0 0.0
2018-Jun-12 20:30N 41°11' W 008°42'0 0.0
2018-Jun-12 20:00N 41°11' W 008°42'0 0.0
2018-Jun-12 19:30N 41°11' W 008°42'0 0.0
2018-Jun-12 19:00N 41°11' W 008°42'0 0.0
2018-Jun-12 18:30N 41°11' W 008°42'0 0.0
2018-Jun-12 18:00N 41°11' W 008°42'0 0.3
2018-Jun-12 17:30N 41°11' W 008°42'2 3.6
2018-Jun-12 17:00N 41°09' W 008°43'2 3.5
2018-Jun-12 16:30N 41°08' W 008°44'1 2.6
2018-Jun-12 16:00N 41°07' W 008°45'2 1.0
2018-Jun-12 14:28N 41°07' W 008°47'  

Dump ship's entire track history